PWSweather.com
Personal Weather Stations
Station Observations
SANDHURSTWX
SandhurstGB

SandhurstGB

Lat: 51.3522, Lon: -0.7739

Elevation: 272.3

Station Type: Davis VP2

www.sandhurstweather.org.uk

High Low Average
Temperature 64.9°F18.3°C 48.0°F8.9°C 55.6°F13.1°C
Dew Point 53.2°F11.8°C 42.0°F5.6°C 48.6°F9.2°C
Winds 9.2 mph 14.8 kmh Calm Calm 3.0 mph SSW4.8 kmh SSW
Wind Gusts 15.0 mph24.1 kmh -- 5.0 mph8.0 kmh
Humidity 94% 58% 78%
Pressure 30.31 in1026.4 mb 30.15 in1021.0 mb -
Precipitation 0.01 in0.3 mm - -
Hour Temp Dew Point Humidity Winds Wind Gusts Pressure Precip Precip Rate Daily Precip Total
12:00 AM 51.5°F10.8°C 49.5°F9.7°C 93% Calm Calm -- 30.15 in1021.0 mb - 0.00 in0.0 mm 0.00 in0.0 mm
01:00 AM 50.5°F10.3°C 48.6°F9.2°C 93% Calm Calm -- 30.16 in1021.3 mb - 0.00 in0.0 mm 0.00 in0.0 mm
02:00 AM 50.7°F10.4°C 49.0°F9.4°C 94% Calm Calm -- 30.15 in1021.0 mb - 0.00 in0.0 mm 0.00 in0.0 mm
03:00 AM 50.8°F10.4°C 49.1°F9.5°C 94% 1.2 mph W1.9 kmh W 1.2 mph1.9 kmh 30.15 in1021.0 mb - 0.00 in0.0 mm 0.00 in0.0 mm
04:00 AM 50.5°F10.3°C 48.6°F9.2°C 93% 2.3 mph WNW3.7 kmh WNW 2.3 mph3.7 kmh 30.15 in1021.0 mb - 0.00 in0.0 mm 0.00 in0.0 mm
05:00 AM 51.3°F10.7°C 49.3°F9.6°C 93% 1.2 mph NW1.9 kmh NW 3.5 mph5.6 kmh 30.16 in1021.3 mb - 0.00 in0.0 mm 0.00 in0.0 mm
06:00 AM 51.7°F10.9°C 49.5°F9.7°C 92% 3.5 mph NW5.6 kmh NW 4.6 mph7.4 kmh 30.17 in1021.7 mb - 0.00 in0.0 mm 0.00 in0.0 mm
07:00 AM 52.8°F11.6°C 50.2°F10.1°C 91% 4.6 mph NW7.4 kmh NW 6.9 mph11.1 kmh 30.18 in1022.0 mb - 0.00 in0.0 mm 0.00 in0.0 mm
08:00 AM 55.0°F12.8°C 51.5°F10.8°C 88% 4.6 mph NW7.4 kmh NW 4.6 mph7.4 kmh 30.20 in1022.7 mb - 0.00 in0.0 mm 0.00 in0.0 mm
09:00 AM 58.6°F14.8°C 52.8°F11.6°C 81% 4.6 mph NW7.4 kmh NW 9.2 mph14.8 kmh 30.20 in1022.7 mb - 0.00 in0.0 mm 0.00 in0.0 mm
10:00 AM 60.2°F15.7°C 53.0°F11.7°C 77% 5.8 mph NW9.3 kmh NW 8.1 mph13.0 kmh 30.20 in1022.7 mb - 0.00 in0.0 mm 0.00 in0.0 mm
11:00 AM 61.6°F16.4°C 53.2°F11.8°C 74% 5.8 mph NW9.3 kmh NW 5.8 mph9.3 kmh 30.21 in1023.0 mb - 0.00 in0.0 mm 0.00 in0.0 mm
12:00 PM 61.7°F16.5°C 52.6°F11.4°C 72% 5.8 mph NW9.3 kmh NW 8.1 mph13.0 kmh 30.22 in1023.4 mb - 0.00 in0.0 mm 0.00 in0.0 mm
01:00 PM 61.6°F16.4°C 52.1°F11.2°C 71% 4.6 mph NE7.4 kmh NE 12.7 mph20.4 kmh 30.23 in1023.7 mb - 0.01 in0.3 mm 0.01 in0.3 mm
02:00 PM 61.8°F16.6°C 50.7°F10.4°C 67% 4.6 mph N7.4 kmh N 4.6 mph7.4 kmh 30.23 in1023.7 mb - 0.00 in0.0 mm 0.01 in0.3 mm
03:00 PM 64.9°F18.3°C 49.7°F9.8°C 58% 9.2 mph NE14.8 kmh NE 15.0 mph24.1 kmh 30.23 in1023.7 mb - 0.00 in0.0 mm 0.01 in0.3 mm
04:00 PM 62.5°F16.9°C 48.4°F9.1°C 60% 4.6 mph N7.4 kmh N 9.2 mph14.8 kmh 30.23 in1023.7 mb - 0.00 in0.0 mm 0.01 in0.3 mm
05:00 PM 61.0°F16.1°C 47.0°F8.3°C 60% 4.6 mph N7.4 kmh N 9.2 mph14.8 kmh 30.24 in1024.0 mb - 0.00 in0.0 mm 0.01 in0.3 mm
06:00 PM 59.6°F15.3°C 45.7°F7.6°C 60% 3.5 mph NW5.6 kmh NW 4.6 mph7.4 kmh 30.25 in1024.4 mb - 0.00 in0.0 mm 0.01 in0.3 mm
07:00 PM 56.3°F13.5°C 43.4°F6.3°C 62% Calm Calm 1.2 mph1.9 kmh 30.27 in1025.1 mb - 0.00 in0.0 mm 0.01 in0.3 mm
08:00 PM 52.4°F11.3°C 43.2°F6.2°C 71% Calm Calm -- 30.29 in1025.7 mb - 0.00 in0.0 mm 0.01 in0.3 mm
09:00 PM 48.9°F9.4°C 42.0°F5.6°C 77% 1.2 mph NE1.9 kmh NE 2.3 mph3.7 kmh 30.30 in1026.1 mb - 0.00 in0.0 mm 0.01 in0.3 mm
10:00 PM 49.8°F9.9°C 43.5°F6.4°C 79% Calm Calm -- 30.30 in1026.1 mb - 0.00 in0.0 mm 0.01 in0.3 mm
11:00 PM 48.0°F8.9°C 42.7°F5.9°C 82% Calm Calm -- 30.31 in1026.4 mb - 0.00 in0.0 mm 0.01 in0.3 mm